Time;durP1;ratioP1;P1;durP2;ratioP2;P2;SDS_P1;SDS_P2;PMS_P1;PMS_P2;Temp;Humidity;BMP_temperature;BMP_pressure;BME280_temperature;BME280_humidity;BME280_pressure;Samples;Min_cycle;Max_cycle;Signal;HPM_P1;HPM_P2
2023/01/11 00:01:18;;;;;;;5.93;1.17;;;8.20;99.90;;;;;;4935631;29;20091;-92
2023/01/11 00:03:44;;;;;;;4.88;1.17;;;8.20;99.90;;;;;;4937082;29;20079;-93
2023/01/11 00:06:10;;;;;;;6.63;1.10;;;8.20;99.90;;;;;;4921356;29;20050;-94
2023/01/11 00:08:36;;;;;;;3.25;0.85;;;8.10;99.90;;;;;;4936599;29;20217;-93
2023/01/11 00:11:02;;;;;;;6.45;1.70;;;8.10;99.90;;;;;;4936273;29;20042;-93
2023/01/11 00:13:29;;;;;;;9.07;1.05;;;8.10;99.90;;;;;;4936081;29;20036;-91
2023/01/11 00:15:55;;;;;;;10.30;1.20;;;8.00;99.90;;;;;;4936703;29;20020;-92
2023/01/11 00:18:21;;;;;;;6.90;1.23;;;8.00;99.90;;;;;;4936289;29;20031;-93
2023/01/11 00:20:47;;;;;;;6.80;1.10;;;8.00;99.90;;;;;;4936118;29;20091;-91
2023/01/11 00:23:12;;;;;;;5.07;0.52;;;7.90;99.90;;;;;;4920969;29;20039;-92
2023/01/11 00:25:38;;;;;;;8.20;1.45;;;7.90;99.90;;;;;;4921766;29;20031;-92
2023/01/11 00:28:04;;;;;;;9.25;1.50;;;7.90;99.90;;;;;;4921290;29;20389;-93
2023/01/11 00:30:30;;;;;;;14.45;1.58;;;7.80;99.90;;;;;;4920679;29;20107;-92
2023/01/11 00:32:57;;;;;;;8.25;1.33;;;7.80;99.90;;;;;;4921753;29;20131;-91
2023/01/11 00:35:24;;;;;;;9.98;2.38;;;7.70;99.90;;;;;;4921332;29;20082;-93
2023/01/11 00:37:52;;;;;;;11.48;1.52;;;7.70;99.90;;;;;;4921105;29;20083;-92
2023/01/11 00:40:18;;;;;;;11.75;1.95;;;7.70;99.90;;;;;;4920090;29;20035;-92
2023/01/11 00:48:12;;;;;;;10.68;1.38;;;7.50;99.90;;;;;;4938029;29;20157;-92
2023/01/11 00:50:39;;;;;;;11.90;1.40;;;7.50;99.90;;;;;;4919457;29;20036;-91
2023/01/11 00:53:07;;;;;;;9.02;1.80;;;7.50;99.90;;;;;;4935498;29;20050;-91
2023/01/11 00:55:33;;;;;;;6.78;1.33;;;7.40;99.90;;;;;;4919980;29;20087;-91
2023/01/11 00:57:59;;;;;;;8.65;2.08;;;7.40;99.90;;;;;;4937058;29;20027;-92
2023/01/11 01:00:27;;;;;;;8.10;1.23;;;7.40;99.90;;;;;;4919813;29;20034;-91
2023/01/11 01:02:52;;;;;;;8.48;1.92;;;7.30;99.90;;;;;;4920553;29;20083;-92
2023/01/11 01:05:18;;;;;;;8.57;1.40;;;7.30;99.90;;;;;;4919611;29;20039;-91
2023/01/11 01:07:45;;;;;;;6.78;1.42;;;7.30;99.90;;;;;;4919005;29;20024;-93
2023/01/11 01:10:13;;;;;;;7.53;1.40;;;7.30;99.90;;;;;;4919221;29;20038;-92
2023/01/11 01:15:23;;;;;;;11.63;1.30;;;7.20;99.90;;;;;;4936728;29;20086;-92
2023/01/11 01:17:53;;;;;;;7.90;1.17;;;7.20;99.90;;;;;;4919447;29;20103;-92
2023/01/11 01:20:21;;;;;;;9.25;1.73;;;7.20;99.90;;;;;;4919213;29;20114;-92
2023/01/11 01:22:47;;;;;;;8.35;1.63;;;7.20;99.90;;;;;;4919250;29;20099;-92
2023/01/11 01:25:13;;;;;;;9.07;1.45;;;7.20;99.90;;;;;;4918814;29;20502;-92
2023/01/11 01:27:39;;;;;;;10.65;1.50;;;7.20;99.90;;;;;;4936029;29;20091;-91
2023/01/11 01:30:05;;;;;;;17.95;3.08;;;7.20;99.90;;;;;;4919688;29;20495;-93
2023/01/11 01:32:31;;;;;;;12.10;1.98;;;7.10;99.90;;;;;;4919699;29;20506;-92
2023/01/11 01:34:57;;;;;;;9.73;1.35;;;7.10;99.90;;;;;;4919287;29;20035;-93
2023/01/11 01:37:22;;;;;;;16.83;3.25;;;7.10;99.90;;;;;;4918682;29;20139;-93
2023/01/11 01:39:48;;;;;;;10.65;1.50;;;7.00;99.90;;;;;;4919003;29;20032;-92
2023/01/11 01:42:16;;;;;;;12.45;1.73;;;7.00;99.90;;;;;;4919090;29;20055;-93
2023/01/11 01:45:33;;;;;;;12.05;1.83;;;7.00;99.90;;;;;;4918762;29;20027;-92
2023/01/11 01:48:00;;;;;;;11.93;1.65;;;7.00;99.90;;;;;;4898075;29;20044;-91
2023/01/11 01:50:31;;;;;;;9.23;1.70;;;6.90;99.90;;;;;;4918333;29;20038;-92
2023/01/11 01:53:14;;;;;;;10.27;1.65;;;6.90;99.90;;;;;;4918866;29;20118;-92
2023/01/11 01:55:44;;;;;;;13.25;1.60;;;6.90;99.90;;;;;;4919004;29;20032;-93
2023/01/11 01:58:15;;;;;;;8.20;1.60;;;6.90;99.90;;;;;;4918598;29;20039;-94
2023/01/11 02:00:44;;;;;;;8.07;1.48;;;6.80;99.90;;;;;;4919562;29;20114;-92
2023/01/11 02:03:15;;;;;;;8.65;1.33;;;6.80;99.90;;;;;;4919473;29;20114;-92
2023/01/11 02:05:41;;;;;;;6.18;1.25;;;6.80;99.90;;;;;;4918776;29;20024;-92
2023/01/11 02:08:16;;;;;;;8.13;1.50;;;6.70;99.90;;;;;;4918936;29;20030;-94
2023/01/11 02:10:42;;;;;;;14.65;2.28;;;6.70;99.90;;;;;;4918660;29;20051;-93
2023/01/11 02:13:11;;;;;;;5.85;1.40;;;6.70;99.90;;;;;;4918533;29;20039;-93
2023/01/11 02:15:36;;;;;;;19.60;1.80;;;6.70;99.90;;;;;;4918717;29;20028;-94
2023/01/11 02:18:03;;;;;;;18.95;1.92;;;6.70;99.90;;;;;;4918973;29;20389;-93
2023/01/11 02:20:34;;;;;;;13.10;1.67;;;6.70;99.90;;;;;;4921057;29;20047;-92
2023/01/11 02:23:15;;;;;;;14.18;1.83;;;6.60;99.90;;;;;;4938283;29;20042;-91
2023/01/11 02:25:59;;;;;;;10.35;1.88;;;6.60;99.90;;;;;;4938584;29;20028;-93
2023/01/11 02:28:34;;;;;;;8.80;1.52;;;6.60;99.90;;;;;;4937734;29;20035;-92
2023/01/11 02:31:20;;;;;;;17.20;2.03;;;6.60;99.90;;;;;;4921760;29;20478;-93
2023/01/11 02:34:09;;;;;;;18.90;3.03;;;6.50;99.90;;;;;;4937822;29;20485;-93
2023/01/11 02:37:11;;;;;;;18.80;1.65;;;6.50;99.90;;;;;;4940400;29;20401;-92
2023/01/11 02:40:06;;;;;;;18.45;2.22;;;6.40;99.90;;;;;;4922272;29;20028;-92
2023/01/11 02:45:53;;;;;;;13.13;1.80;;;6.40;99.90;;;;;;4936277;29;20034;-93
2023/01/11 02:48:51;;;;;;;14.18;1.80;;;6.30;99.90;;;;;;4917865;29;20080;-94
2023/01/11 02:51:34;;;;;;;17.38;2.53;;;6.30;99.90;;;;;;4933820;29;20027;-93
2023/01/11 02:54:07;;;;;;;11.48;2.47;;;6.30;99.90;;;;;;4934161;29;20058;-94
2023/01/11 02:56:40;;;;;;;10.38;1.92;;;6.30;99.90;;;;;;4934057;29;20027;-92
2023/01/11 02:59:10;;;;;;;15.55;2.78;;;6.20;99.90;;;;;;4935651;29;20024;-93
2023/01/11 03:01:47;;;;;;;14.45;1.85;;;6.20;99.90;;;;;;4935766;29;20115;-92
2023/01/11 03:04:28;;;;;;;18.73;1.85;;;6.20;99.90;;;;;;4937717;29;20508;-93
2023/01/11 03:07:01;;;;;;;21.50;2.60;;;6.20;99.90;;;;;;4937123;29;20035;-93
2023/01/11 03:09:50;;;;;;;18.00;2.50;;;6.20;99.90;;;;;;4937515;29;20536;-91
2023/01/11 03:12:50;;;;;;;12.15;1.95;;;6.30;99.90;;;;;;4937461;29;20481;-93
2023/01/11 03:15:34;;;;;;;14.98;2.00;;;6.30;99.90;;;;;;4937162;29;20127;-94
2023/01/11 03:18:06;;;;;;;12.13;2.40;;;6.30;99.90;;;;;;4937874;29;20031;-91
2023/01/11 03:20:38;;;;;;;10.00;2.00;;;6.30;99.90;;;;;;4936959;29;20087;-93
2023/01/11 03:23:15;;;;;;;16.35;2.03;;;6.30;99.90;;;;;;4937074;29;20027;-92
2023/01/11 03:26:25;;;;;;;15.07;2.45;;;6.30;99.90;;;;;;4936640;29;20059;-93
2023/01/11 03:29:15;;;;;;;19.52;2.25;;;6.30;99.90;;;;;;4905806;29;20031;-93
2023/01/11 03:31:59;;;;;;;11.20;2.40;;;6.30;99.90;;;;;;4936823;29;20370;-91
2023/01/11 03:34:41;;;;;;;14.55;1.92;;;6.30;99.90;;;;;;4937261;29;20043;-92
2023/01/11 03:37:13;;;;;;;13.57;1.95;;;6.30;99.90;;;;;;4936651;29;20393;-92
2023/01/11 03:39:45;;;;;;;18.17;2.83;;;6.30;99.90;;;;;;4936576;29;20031;-92
2023/01/11 03:42:14;;;;;;;12.38;2.20;;;6.30;99.90;;;;;;4936900;29;20023;-92
2023/01/11 03:44:44;;;;;;;20.75;2.60;;;6.20;99.90;;;;;;4937123;29;20074;-92
2023/01/11 03:47:13;;;;;;;19.33;2.22;;;6.20;99.90;;;;;;4936659;29;20048;-92
2023/01/11 03:49:48;;;;;;;14.20;2.38;;;6.20;99.90;;;;;;4936391;29;20058;-92
2023/01/11 03:52:16;;;;;;;19.05;2.40;;;6.10;99.90;;;;;;4936451;29;20035;-92
2023/01/11 03:54:44;;;;;;;16.30;1.80;;;6.10;99.90;;;;;;4935983;29;20043;-93
2023/01/11 03:57:15;;;;;;;13.60;2.53;;;6.10;99.90;;;;;;4936346;29;20497;-93
2023/01/11 03:59:41;;;;;;;20.35;2.25;;;6.10;99.90;;;;;;4942212;29;20119;-92
2023/01/11 04:02:18;;;;;;;14.02;2.80;;;6.10;99.90;;;;;;4939391;29;20055;-91
2023/01/11 04:04:44;;;;;;;18.20;3.83;;;6.10;99.90;;;;;;4938247;29;20035;-92
2023/01/11 04:07:10;;;;;;;19.42;2.38;;;6.00;99.90;;;;;;4936795;29;20028;-92
2023/01/11 04:09:36;;;;;;;14.55;1.65;;;6.00;99.90;;;;;;4935827;29;20075;-92
2023/01/11 04:12:01;;;;;;;19.70;2.60;;;5.90;99.90;;;;;;4935750;29;20028;-92
2023/01/11 04:14:27;;;;;;;10.60;1.75;;;6.00;99.90;;;;;;4936509;29;20485;-92
2023/01/11 04:16:53;;;;;;;13.88;2.42;;;6.00;99.90;;;;;;4936052;29;20024;-92
2023/01/11 04:19:18;;;;;;;12.75;1.83;;;5.90;99.90;;;;;;4936235;29;20027;-93
2023/01/11 04:21:44;;;;;;;16.73;1.90;;;5.90;99.90;;;;;;4936222;29;20023;-92
2023/01/11 04:24:10;;;;;;;22.23;2.60;;;5.90;99.90;;;;;;4935691;29;20087;-93
2023/01/11 04:26:36;;;;;;;16.60;3.03;;;5.90;99.90;;;;;;4935486;29;20355;-92
2023/01/11 04:29:01;;;;;;;16.38;2.00;;;5.90;99.90;;;;;;4935972;29;20070;-93
2023/01/11 04:31:27;;;;;;;15.82;2.30;;;5.90;99.90;;;;;;4936205;29;20035;-92
2023/01/11 04:33:53;;;;;;;15.07;1.77;;;6.00;99.90;;;;;;4935905;29;20046;-92
2023/01/11 04:36:18;;;;;;;12.48;2.03;;;6.00;99.90;;;;;;4936161;29;20028;-92
2023/01/11 04:38:44;;;;;;;12.60;1.48;;;6.00;99.90;;;;;;4936054;29;20035;-92
2023/01/11 04:43:57;;;;;;;12.98;2.33;;;6.00;99.90;;;;;;4936747;29;20066;-92
2023/01/11 04:46:23;;;;;;;12.90;2.60;;;5.90;99.90;;;;;;4935285;29;20068;-92
2023/01/11 04:48:49;;;;;;;17.05;1.90;;;5.90;99.90;;;;;;4919373;29;20063;-93
2023/01/11 04:51:16;;;;;;;15.60;2.33;;;5.90;99.90;;;;;;4935155;29;20118;-92
2023/01/11 04:53:42;;;;;;;14.32;2.00;;;5.90;99.90;;;;;;4935002;29;20055;-94
2023/01/11 04:56:08;;;;;;;15.02;2.50;;;5.90;99.90;;;;;;4935127;29;20425;-93
2023/01/11 04:58:35;;;;;;;14.40;2.28;;;5.90;99.90;;;;;;4934724;29;20063;-93
2023/01/11 05:01:07;;;;;;;22.77;2.97;;;5.80;99.90;;;;;;4934999;29;20390;-92
2023/01/11 05:03:33;;;;;;;16.67;2.85;;;5.80;99.90;;;;;;4935447;29;20046;-92
2023/01/11 05:06:00;;;;;;;12.40;1.58;;;5.80;99.90;;;;;;4935758;29;20032;-94
2023/01/11 05:08:27;;;;;;;14.70;1.98;;;5.80;99.90;;;;;;4936802;29;20035;-93
2023/01/11 05:10:55;;;;;;;14.88;2.00;;;5.80;99.90;;;;;;4935099;29;20043;-92
2023/01/11 05:13:21;;;;;;;23.55;2.20;;;5.80;99.90;;;;;;4934701;29;20035;-93
2023/01/11 05:15:47;;;;;;;14.18;1.73;;;5.80;99.90;;;;;;4935081;29;20023;-93
2023/01/11 05:18:13;;;;;;;18.45;2.90;;;5.80;99.90;;;;;;4936539;29;20039;-91
2023/01/11 05:20:38;;;;;;;14.70;2.33;;;5.80;99.90;;;;;;4939083;29;20028;-92
2023/01/11 05:23:04;;;;;;;12.20;1.48;;;5.90;99.90;;;;;;4938821;29;20122;-92
2023/01/11 05:25:30;;;;;;;10.52;1.48;;;5.90;99.90;;;;;;4938163;29;20039;-92
2023/01/11 05:27:55;;;;;;;23.60;2.25;;;5.90;99.90;;;;;;4936245;29;20086;-91
2023/01/11 05:30:21;;;;;;;10.35;1.75;;;5.90;99.90;;;;;;4934979;29;20038;-92
2023/01/11 05:32:47;;;;;;;16.15;1.90;;;5.90;99.90;;;;;;4935159;29;20036;-92
2023/01/11 05:35:12;;;;;;;21.58;2.70;;;5.90;99.90;;;;;;4935202;29;20074;-93
2023/01/11 05:37:38;;;;;;;22.58;1.95;;;5.90;99.90;;;;;;4935075;29;20035;-92
2023/01/11 05:40:07;;;;;;;17.38;2.30;;;5.90;99.90;;;;;;4935367;29;20024;-91
2023/01/11 05:42:33;;;;;;;15.10;1.70;;;5.90;99.90;;;;;;4935103;29;20050;-92
2023/01/11 05:47:42;;;;;;;16.95;2.03;;;5.90;99.90;;;;;;4935339;29;20139;-91
2023/01/11 05:50:09;;;;;;;13.38;2.22;;;5.80;99.90;;;;;;4934856;29;20118;-92
2023/01/11 05:52:34;;;;;;;15.10;1.75;;;5.80;99.90;;;;;;4934795;29;20110;-92
2023/01/11 05:55:00;;;;;;;13.40;1.98;;;5.80;99.90;;;;;;4934498;29;20131;-92
2023/01/11 05:57:26;;;;;;;19.30;1.70;;;5.80;99.90;;;;;;4935699;29;20028;-92
2023/01/11 05:59:51;;;;;;;14.57;1.75;;;5.80;99.90;;;;;;4935873;29;20086;-92
2023/01/11 06:02:17;;;;;;;13.65;1.90;;;5.80;99.90;;;;;;4934168;29;20101;-91
2023/01/11 06:04:43;;;;;;;10.20;1.80;;;5.70;99.90;;;;;;4934443;29;20239;-92
2023/01/11 06:07:08;;;;;;;14.30;2.05;;;5.70;99.90;;;;;;4935401;29;20026;-92
2023/01/11 06:09:34;;;;;;;11.35;2.20;;;5.70;99.90;;;;;;4935983;29;20051;-93
2023/01/11 06:12:00;;;;;;;17.75;1.90;;;5.60;99.90;;;;;;4934585;29;20460;-93
2023/01/11 06:14:26;;;;;;;22.25;2.70;;;5.60;99.90;;;;;;4934465;29;20078;-92
2023/01/11 06:16:52;;;;;;;12.85;1.70;;;5.60;99.90;;;;;;4933883;29;20074;-92
2023/01/11 06:19:17;;;;;;;10.57;1.30;;;5.60;99.90;;;;;;4934022;29;20042;-92
2023/01/11 06:21:43;;;;;;;19.95;1.77;;;5.60;99.90;;;;;;4934884;29;20024;-91
2023/01/11 06:24:08;;;;;;;13.32;1.52;;;5.60;99.90;;;;;;4933918;29;20031;-90
2023/01/11 06:26:34;;;;;;;10.32;1.80;;;5.60;99.90;;;;;;4933994;29;20035;-91
2023/01/11 06:29:00;;;;;;;17.10;2.85;;;5.60;99.90;;;;;;4933789;29;20028;-92
2023/01/11 06:31:26;;;;;;;15.27;2.90;;;5.50;99.90;;;;;;4934268;29;20559;-92
2023/01/11 06:33:51;;;;;;;8.32;1.90;;;5.50;99.90;;;;;;4933909;29;20520;-91
2023/01/11 06:36:18;;;;;;;21.63;2.38;;;5.50;99.90;;;;;;4935461;29;20035;-92
2023/01/11 06:38:44;;;;;;;16.15;2.25;;;5.50;99.90;;;;;;4937936;29;20028;-91
2023/01/11 06:41:10;;;;;;;15.43;2.30;;;5.50;99.90;;;;;;4937630;29;20035;-92
2023/01/11 06:43:39;;;;;;;21.38;2.47;;;5.50;99.90;;;;;;4937582;29;20031;-92
2023/01/11 06:46:17;;;;;;;21.80;3.45;;;5.50;99.90;;;;;;4938139;29;20062;-92
2023/01/11 06:48:43;;;;;;;14.43;1.80;;;5.50;99.90;;;;;;4938339;29;20027;-92
2023/01/11 06:51:10;;;;;;;12.15;1.90;;;5.50;99.90;;;;;;4938215;29;20032;-92
2023/01/11 06:53:37;;;;;;;11.88;1.75;;;5.50;99.90;;;;;;4939325;29;20036;-91
2023/01/11 06:56:06;;;;;;;15.98;2.45;;;5.50;99.90;;;;;;4954431;29;20074;-91
2023/01/11 06:58:32;;;;;;;11.35;1.67;;;5.50;99.90;;;;;;4957026;29;20032;-92
2023/01/11 07:00:58;;;;;;;13.75;1.73;;;5.50;99.90;;;;;;4955200;29;20026;-92
2023/01/11 07:03:24;;;;;;;16.98;2.05;;;5.50;99.90;;;;;;4939433;29;20031;-92
2023/01/11 07:05:55;;;;;;;16.40;2.15;;;5.50;99.90;;;;;;4928569;29;20028;-92
2023/01/11 07:08:21;;;;;;;;;;;5.50;99.90;;;;;;4928073;29;20035;-93
2023/01/11 07:10:47;;;;;;;14.25;1.90;;;5.50;99.90;;;;;;4942486;29;19914;-91
2023/01/11 07:13:16;;;;;;;15.60;1.92;;;5.40;99.90;;;;;;4925434;29;20042;-91
2023/01/11 07:15:50;;;;;;;18.55;1.83;;;5.40;99.90;;;;;;4924596;29;20629;-91
2023/01/11 07:18:20;;;;;;;16.38;1.90;;;5.40;99.90;;;;;;4924642;29;20051;-91
2023/01/11 07:20:46;;;;;;;14.15;2.95;;;5.40;99.90;;;;;;4924368;29;20028;-91
2023/01/11 07:23:13;;;;;;;19.67;2.28;;;5.40;99.90;;;;;;4923345;29;20031;-91
2023/01/11 07:25:39;;;;;;;24.35;2.72;;;5.40;99.90;;;;;;4924253;29;20036;-92
2023/01/11 07:28:07;;;;;;;11.95;2.00;;;5.40;99.90;;;;;;4924031;29;20118;-90
2023/01/11 07:30:34;;;;;;;15.60;1.70;;;5.40;99.90;;;;;;4923303;29;20028;-91
2023/01/11 07:33:00;;;;;;;14.40;1.63;;;5.40;99.90;;;;;;4923891;29;20035;-92
2023/01/11 07:35:27;;;;;;;14.43;2.10;;;5.40;99.90;;;;;;4924430;29;20027;-92
2023/01/11 07:37:53;;;;;;;16.50;1.85;;;5.40;99.90;;;;;;4922794;29;20027;-92
2023/01/11 07:40:18;;;;;;;13.52;1.90;;;5.40;99.90;;;;;;4922242;29;20135;-91
2023/01/11 07:45:39;;;;;;;12.70;1.90;;;5.40;99.90;;;;;;4939088;29;20050;-92
2023/01/11 07:48:07;;;;;;;16.17;2.50;;;5.40;99.90;;;;;;4921032;29;20039;-91
2023/01/11 07:50:32;;;;;;;13.05;2.22;;;5.30;99.90;;;;;;4921334;29;20130;-91
2023/01/11 07:52:58;;;;;;;10.40;1.92;;;5.30;99.90;;;;;;4922000;29;20488;-91
2023/01/11 07:55:24;;;;;;;18.52;2.28;;;5.30;99.90;;;;;;4921486;29;20488;-92
2023/01/11 07:57:55;;;;;;;16.85;2.83;;;5.30;99.90;;;;;;4922022;29;20406;-91
2023/01/11 08:00:21;;;;;;;13.32;2.00;;;5.30;99.90;;;;;;4921971;29;20028;-92
2023/01/11 08:02:51;;;;;;;10.35;1.58;;;5.30;99.90;;;;;;4938209;29;20118;-92
2023/01/11 08:05:19;;;;;;;13.13;2.80;;;5.30;99.90;;;;;;4938623;29;20027;-91
2023/01/11 08:07:45;;;;;;;16.17;2.35;;;5.30;99.90;;;;;;4937317;29;20039;-91
2023/01/11 08:10:11;;;;;;;16.67;2.13;;;5.30;99.90;;;;;;4921736;29;20470;-91
2023/01/11 08:15:30;;;;;;;24.35;2.88;;;5.30;99.90;;;;;;4940156;29;20393;-90
2023/01/11 08:17:56;;;;;;;16.15;2.15;;;5.30;99.90;;;;;;4922022;29;20028;-91
2023/01/11 08:20:25;;;;;;;16.45;2.05;;;5.30;99.90;;;;;;4938125;29;20086;-93
2023/01/11 08:22:52;;;;;;;16.00;3.47;;;5.40;99.90;;;;;;4923694;29;20024;-92
2023/01/11 08:25:17;;;;;;;22.05;2.55;;;5.40;99.90;;;;;;4921510;29;20275;-91
2023/01/11 08:27:43;;;;;;;16.92;1.73;;;5.40;99.90;;;;;;4921316;29;20128;-92
2023/01/11 08:30:13;;;;;;;14.45;2.28;;;5.40;99.90;;;;;;4920983;29;20090;-92
2023/01/11 08:32:39;;;;;;;16.90;3.67;;;5.40;99.90;;;;;;4937821;29;20122;-91
2023/01/11 08:35:05;;;;;;;16.98;2.45;;;5.40;99.90;;;;;;4921567;29;20055;-92
2023/01/11 08:37:31;;;;;;;22.25;2.60;;;5.40;99.90;;;;;;4937230;29;20031;-93
2023/01/11 08:39:57;;;;;;;27.77;3.05;;;5.40;99.90;;;;;;4937454;29;20024;-92
2023/01/11 08:42:23;;;;;;;10.80;1.67;;;5.30;99.90;;;;;;4921412;29;20027;-92
2023/01/11 08:44:49;;;;;;;11.57;1.83;;;5.30;99.90;;;;;;4936989;29;20020;-92
2023/01/11 08:47:14;;;;;;;17.85;2.60;;;5.30;99.90;;;;;;4921173;29;20054;-92
2023/01/11 08:49:42;;;;;;;12.60;1.95;;;5.30;99.90;;;;;;4921332;29;20031;-94
2023/01/11 08:52:12;;;;;;;18.65;3.25;;;5.20;99.90;;;;;;4920878;29;20028;-95
2023/01/11 08:54:39;;;;;;;18.67;2.60;;;5.20;99.90;;;;;;4921766;29;20036;-95
2023/01/11 08:57:05;;;;;;;22.42;3.03;;;5.20;99.90;;;;;;4922509;29;20023;-94
2023/01/11 08:59:31;;;;;;;27.20;4.55;;;5.30;99.90;;;;;;4937298;29;20024;-94
2023/01/11 09:01:57;;;;;;;18.35;2.35;;;5.30;99.90;;;;;;4920474;29;20481;-94
2023/01/11 09:04:23;;;;;;;15.60;2.63;;;5.40;99.90;;;;;;4922204;29;20043;-95
2023/01/11 09:06:49;;;;;;;21.42;2.85;;;5.40;99.90;;;;;;4921827;29;20028;-94
2023/01/11 09:09:15;;;;;;;17.52;2.70;;;5.40;99.90;;;;;;4936996;29;20564;-95
2023/01/11 09:11:53;;;;;;;21.95;2.75;;;5.40;99.90;;;;;;4920974;29;20074;-94
2023/01/11 09:14:20;;;;;;;27.65;2.58;;;5.40;99.90;;;;;;4921496;29;20032;-94
2023/01/11 09:16:48;;;;;;;32.92;3.17;;;5.50;99.90;;;;;;4937123;29;20115;-95
2023/01/11 09:19:14;;;;;;;24.70;2.90;;;5.50;99.90;;;;;;4920790;29;20023;-93
2023/01/11 09:21:40;;;;;;;20.73;3.92;;;5.60;99.90;;;;;;4937585;29;20119;-94
2023/01/11 09:24:06;;;;;;;24.48;3.97;;;5.70;99.90;;;;;;4920804;29;20032;-94
2023/01/11 09:26:32;;;;;;;29.13;3.38;;;5.80;99.90;;;;;;4920726;29;20035;-94
2023/01/11 09:28:58;;;;;;;17.15;2.88;;;5.90;99.90;;;;;;4920471;29;20016;-93
2023/01/11 09:31:24;;;;;;;19.98;2.45;;;6.00;99.90;;;;;;4922514;29;20028;-95
2023/01/11 09:33:51;;;;;;;12.93;2.03;;;6.10;99.90;;;;;;4919812;29;20108;-95
2023/01/11 09:36:20;;;;;;;24.83;2.60;;;6.20;99.90;;;;;;4938178;29;20019;-95
2023/01/11 09:38:51;;;;;;;22.73;2.80;;;6.30;99.90;;;;;;4919963;29;20161;-94
2023/01/11 09:41:33;;;;;;;15.18;2.95;;;6.40;99.90;;;;;;4935522;29;20035;-94
2023/01/11 09:44:20;;;;;;;15.77;1.92;;;6.50;99.90;;;;;;4926156;29;20024;-95
2023/01/11 09:46:54;;;;;;;33.55;3.65;;;6.50;99.90;;;;;;4934592;29;20063;-95
2023/01/11 09:49:39;;;;;;;25.17;2.40;;;6.50;99.90;;;;;;4935187;29;20024;-95
2023/01/11 09:52:27;;;;;;;23.80;2.40;;;6.50;99.90;;;;;;4918965;29;20130;-95
2023/01/11 09:54:55;;;;;;;17.95;2.40;;;6.40;99.90;;;;;;4918767;29;20047;-93
2023/01/11 09:57:32;;;;;;;26.42;3.08;;;6.40;99.90;;;;;;4919976;29;20020;-94
2023/01/11 10:00:16;;;;;;;29.95;4.20;;;6.40;99.90;;;;;;4935391;29;20055;-94
2023/01/11 10:03:03;;;;;;;25.55;4.18;;;6.40;99.90;;;;;;4917712;29;20024;-95
2023/01/11 10:05:54;;;;;;;20.88;4.07;;;6.30;99.90;;;;;;4926965;29;20043;-95
2023/01/11 10:08:30;;;;;;;18.65;2.83;;;6.40;99.90;;;;;;4921593;29;20031;-94
2023/01/11 10:11:29;;;;;;;26.05;4.40;;;6.40;99.90;;;;;;4943958;29;20042;-94
2023/01/11 10:14:10;;;;;;;20.85;2.20;;;6.40;99.90;;;;;;4931001;29;20048;-93
2023/01/11 10:16:49;;;;;;;17.08;3.05;;;6.40;99.90;;;;;;4937571;29;20031;-95
2023/01/11 10:19:24;;;;;;;19.70;2.40;;;6.40;99.90;;;;;;4929485;29;20099;-94
2023/01/11 10:22:17;;;;;;;15.80;1.85;;;6.40;99.90;;;;;;4934040;29;20032;-95
2023/01/11 10:24:51;;;;;;;13.00;2.45;;;6.50;99.90;;;;;;4923711;29;20030;-94
2023/01/11 10:27:25;;;;;;;21.70;2.40;;;6.50;99.90;;;;;;4919432;29;20028;-96
2023/01/11 10:41:47;;;;;;;16.10;2.60;;;6.40;99.90;;;;;;4892299;29;20047;-95
2023/01/11 10:44:42;;;;;;;19.33;3.03;;;6.40;99.90;;;;;;4897728;29;20035;-96
2023/01/11 10:47:20;;;;;;;34.97;4.18;;;6.30;99.90;;;;;;4881966;29;20055;-96
2023/01/11 10:50:11;;;;;;;17.35;2.30;;;6.30;99.90;;;;;;4900008;29;20045;-95
2023/01/11 10:52:58;;;;;;;23.27;4.78;;;6.20;99.90;;;;;;4884028;29;20056;-96
2023/01/11 10:56:01;;;;;;;26.08;2.83;;;6.20;99.90;;;;;;4883427;29;20097;-95
2023/01/11 10:59:06;;;;;;;18.58;2.47;;;6.20;99.90;;;;;;4878603;29;20040;-93
2023/01/11 11:02:00;;;;;;;17.98;3.22;;;6.20;99.90;;;;;;4895920;29;20033;-94
2023/01/11 11:04:50;;;;;;;23.17;3.17;;;6.20;99.90;;;;;;4896664;29;20025;-95
2023/01/11 11:07:31;;;;;;;23.13;4.38;;;6.20;99.90;;;;;;4888547;29;20116;-94
2023/01/11 11:10:00;;;;;;;;;;;6.20;99.90;;;;;;4886923;29;20273;-95
2023/01/11 11:12:39;;;;;;;19.85;2.80;;;6.30;99.90;;;;;;4880358;29;19944;-94
2023/01/11 11:15:37;;;;;;;8.65;1.83;;;6.70;99.90;;;;;;4907187;29;20126;-94
2023/01/11 11:18:04;;;;;;;14.13;2.22;;;6.90;99.90;;;;;;4921534;29;20024;-95
2023/01/11 11:20:32;;;;;;;13.82;2.17;;;7.00;99.90;;;;;;4924897;29;20016;-95
2023/01/11 11:22:59;;;;;;;13.65;2.00;;;7.20;99.90;;;;;;4941040;29;20035;-95
2023/01/11 11:25:29;;;;;;;12.88;2.25;;;7.20;99.90;;;;;;4926470;29;20147;-95
2023/01/11 11:28:00;;;;;;;21.58;2.63;;;7.10;99.90;;;;;;4922917;29;20043;-95
2023/01/11 11:30:41;;;;;;;22.92;2.95;;;7.10;99.90;;;;;;4923026;29;20019;-94
2023/01/11 11:33:21;;;;;;;12.95;2.78;;;7.10;99.90;;;;;;4921363;29;20036;-95
2023/01/11 11:36:05;;;;;;;16.27;2.63;;;7.10;99.90;;;;;;4921316;29;20031;-94
2023/01/11 11:38:34;;;;;;;13.02;2.33;;;7.10;99.90;;;;;;4935323;29;20028;-94
2023/01/11 11:41:15;;;;;;;12.57;2.10;;;7.20;99.90;;;;;;4923234;29;20019;-95
2023/01/11 11:43:48;;;;;;;10.77;1.92;;;7.20;99.90;;;;;;4924976;29;20027;-94
2023/01/11 11:46:13;;;;;;;22.23;3.75;;;7.20;99.90;;;;;;4928525;29;20039;-93
2023/01/11 11:48:41;;;;;;;11.77;2.22;;;7.30;99.90;;;;;;4948119;29;20027;-95
2023/01/11 11:51:18;;;;;;;16.65;2.50;;;7.50;99.90;;;;;;4944685;29;20024;-93
2023/01/11 11:53:54;;;;;;;13.40;2.40;;;7.60;99.90;;;;;;4939333;29;20031;-94
2023/01/11 11:56:27;;;;;;;14.45;2.40;;;7.60;99.90;;;;;;4939769;29;20465;-95
2023/01/11 11:58:54;;;;;;;14.85;2.60;;;7.60;99.90;;;;;;4940313;29;20020;-96
2023/01/11 12:01:31;;;;;;;20.23;2.72;;;7.50;99.90;;;;;;4922756;29;20027;-95
2023/01/11 12:04:19;;;;;;;20.48;2.85;;;7.50;99.90;;;;;;4919668;29;20533;-94
2023/01/11 12:07:15;;;;;;;8.68;1.73;;;7.50;99.90;;;;;;4931120;29;20031;-95
2023/01/11 12:09:50;;;;;;;20.05;3.30;;;7.40;99.90;;;;;;4910803;29;20036;-95
2023/01/11 12:12:19;;;;;;;22.27;3.28;;;7.40;99.90;;;;;;4939315;29;20521;-95
2023/01/11 12:15:07;;;;;;;19.20;2.05;;;7.40;99.90;;;;;;4920590;29;20028;-95
2023/01/11 12:17:34;;;;;;;19.83;2.63;;;7.40;99.90;;;;;;4938792;29;20126;-94
2023/01/11 12:20:22;;;;;;;18.02;3.38;;;7.50;99.90;;;;;;4939529;29;20027;-96
2023/01/11 12:23:20;;;;;;;14.18;2.40;;;7.50;99.90;;;;;;4937089;29;20031;-95
2023/01/11 12:26:17;;;;;;;15.43;1.75;;;7.60;99.90;;;;;;4933364;29;20051;-95
2023/01/11 12:29:11;;;;;;;9.15;2.08;;;7.60;99.90;;;;;;4922058;29;20052;-96
2023/01/11 12:31:42;;;;;;;17.75;2.95;;;7.50;99.90;;;;;;4921907;29;20028;-96
2023/01/11 12:34:33;;;;;;;11.30;2.67;;;7.50;99.90;;;;;;4937831;29;20036;-96
2023/01/11 12:36:59;;;;;;;12.55;2.47;;;7.50;99.90;;;;;;4928406;29;20024;-94
2023/01/11 12:39:33;;;;;;;11.10;1.92;;;7.50;99.90;;;;;;4940282;29;20038;-94
2023/01/11 12:42:32;;;;;;;9.25;2.22;;;7.50;99.90;;;;;;4927864;29;20465;-94
2023/01/11 12:45:35;;;;;;;14.57;2.45;;;7.50;99.90;;;;;;4939764;29;20039;-96
2023/01/11 12:48:29;;;;;;;12.50;2.40;;;7.50;99.90;;;;;;4914765;29;20043;-96
2023/01/11 12:51:08;;;;;;;13.98;1.95;;;7.50;99.90;;;;;;4918020;29;20035;-95
2023/01/11 12:54:17;;;;;;;12.82;1.77;;;7.50;99.90;;;;;;4918806;29;20076;-95
2023/01/11 12:57:23;;;;;;;12.60;2.40;;;7.50;99.90;;;;;;4911915;29;20052;-94
2023/01/11 13:00:10;;;;;;;11.00;1.83;;;7.50;99.90;;;;;;4890767;29;20927;-95
2023/01/11 13:02:54;;;;;;;7.15;1.42;;;7.40;99.90;;;;;;4914578;29;20051;-93
2023/01/11 13:06:18;;;;;;;11.68;2.17;;;7.40;99.90;;;;;;4913694;29;20017;-93
2023/01/11 13:09:17;;;;;;;10.93;2.65;;;7.40;99.90;;;;;;4830339;29;20041;-95
2023/01/11 13:12:41;;;;;;;10.93;2.30;;;7.30;99.90;;;;;;4850495;29;20519;-96
2023/01/11 13:15:34;;;;;;;8.75;1.20;;;7.20;99.90;;;;;;4829209;29;20147;-95
2023/01/11 13:18:30;;;;;;;11.30;1.40;;;7.20;99.90;;;;;;4828175;29;20059;-92
2023/01/11 13:21:25;;;;;;;14.52;1.60;;;7.20;99.90;;;;;;4817174;29;20083;-94
2023/01/11 13:24:24;;;;;;;7.97;1.95;;;7.20;99.90;;;;;;4843055;29;20045;-95
2023/01/11 13:27:12;;;;;;;8.77;2.00;;;7.10;99.90;;;;;;4831453;29;20034;-92
2023/01/11 13:29:51;;;;;;;18.65;2.95;;;7.10;99.90;;;;;;4837256;29;20045;-94
2023/01/11 13:32:26;;;;;;;10.45;2.13;;;7.00;99.90;;;;;;4827997;29;20047;-95
2023/01/11 13:35:54;;;;;;;;;;;;;;;;;;;;;
2023/01/11 13:38:36;;;;;;;11.18;2.47;;;7.00;99.90;;;;;;4772718;30;20602;-95
2023/01/11 13:41:50;;;;;;;;;;;;;;;;;;;;;
2023/01/11 13:44:54;;;;;;;5.55;1.77;;;6.90;99.90;;;;;;4824481;29;20038;-93
2023/01/11 13:47:46;;;;;;;11.98;2.17;;;6.80;99.90;;;;;;4821850;29;20045;-96
2023/01/11 13:50:28;;;;;;;14.35;3.55;;;6.80;99.90;;;;;;4829461;29;20038;-94
2023/01/11 13:53:12;;;;;;;6.80;1.40;;;6.80;99.90;;;;;;4834656;29;20060;-95
2023/01/11 13:56:14;;;;;;;10.77;2.17;;;6.70;99.90;;;;;;4841442;29;20070;-94
2023/01/11 13:59:27;;;;;;;5.20;1.25;;;6.70;99.90;;;;;;4841588;29;20040;-95